sensor_id;sensor_type;location;lat;lon;timestamp;P1;durP1;ratioP1;P2;durP2;ratioP2
10232;SDS011;5161;48.174;11.756;2023-05-29T00:01:26;13.37;;;9.80;;
10232;SDS011;5161;48.174;11.756;2023-05-29T00:03:51;10.87;;;9.67;;
10232;SDS011;5161;48.174;11.756;2023-05-29T00:06:17;10.43;;;8.97;;
10232;SDS011;5161;48.174;11.756;2023-05-29T00:08:44;11.97;;;9.77;;
10232;SDS011;5161;48.174;11.756;2023-05-29T00:11:10;11.23;;;9.63;;
10232;SDS011;5161;48.174;11.756;2023-05-29T00:13:36;11.70;;;9.27;;
10232;SDS011;5161;48.174;11.756;2023-05-29T00:16:01;11.37;;;9.73;;
10232;SDS011;5161;48.174;11.756;2023-05-29T00:18:28;10.27;;;9.23;;
10232;SDS011;5161;48.174;11.756;2023-05-29T00:20:54;15.00;;;9.20;;
10232;SDS011;5161;48.174;11.756;2023-05-29T00:23:20;10.90;;;9.53;;
10232;SDS011;5161;48.174;11.756;2023-05-29T00:25:46;12.33;;;9.70;;
10232;SDS011;5161;48.174;11.756;2023-05-29T00:28:12;11.53;;;9.40;;
10232;SDS011;5161;48.174;11.756;2023-05-29T00:30:38;10.60;;;9.50;;
10232;SDS011;5161;48.174;11.756;2023-05-29T00:33:04;13.03;;;10.03;;
10232;SDS011;5161;48.174;11.756;2023-05-29T00:35:30;11.30;;;9.73;;
10232;SDS011;5161;48.174;11.756;2023-05-29T00:37:55;12.10;;;9.90;;
10232;SDS011;5161;48.174;11.756;2023-05-29T00:40:22;11.53;;;10.17;;
10232;SDS011;5161;48.174;11.756;2023-05-29T00:42:48;12.60;;;9.67;;
10232;SDS011;5161;48.174;11.756;2023-05-29T00:45:13;12.83;;;9.53;;
10232;SDS011;5161;48.174;11.756;2023-05-29T00:47:40;11.77;;;9.80;;
10232;SDS011;5161;48.174;11.756;2023-05-29T00:50:06;11.33;;;9.30;;
10232;SDS011;5161;48.174;11.756;2023-05-29T00:52:35;11.70;;;9.87;;
10232;SDS011;5161;48.174;11.756;2023-05-29T00:55:02;12.23;;;9.73;;
10232;SDS011;5161;48.174;11.756;2023-05-29T00:57:28;12.73;;;9.47;;
10232;SDS011;5161;48.174;11.756;2023-05-29T00:59:55;11.47;;;9.37;;
10232;SDS011;5161;48.174;11.756;2023-05-29T01:02:21;14.17;;;10.30;;
10232;SDS011;5161;48.174;11.756;2023-05-29T01:04:47;10.93;;;9.40;;
10232;SDS011;5161;48.174;11.756;2023-05-29T01:07:13;12.13;;;9.30;;
10232;SDS011;5161;48.174;11.756;2023-05-29T01:09:40;12.13;;;9.80;;
10232;SDS011;5161;48.174;11.756;2023-05-29T01:12:15;10.03;;;9.03;;
10232;SDS011;5161;48.174;11.756;2023-05-29T01:22:35;10.53;;;9.33;;
10232;SDS011;5161;48.174;11.756;2023-05-29T01:25:20;11.33;;;9.63;;
10232;SDS011;5161;48.174;11.756;2023-05-29T01:27:49;12.53;;;9.50;;
10232;SDS011;5161;48.174;11.756;2023-05-29T01:30:17;11.30;;;9.33;;
10232;SDS011;5161;48.174;11.756;2023-05-29T01:32:43;11.80;;;9.30;;
10232;SDS011;5161;48.174;11.756;2023-05-29T01:35:09;10.73;;;9.10;;
10232;SDS011;5161;48.174;11.756;2023-05-29T01:37:35;13.17;;;9.77;;
10232;SDS011;5161;48.174;11.756;2023-05-29T01:40:01;12.90;;;9.60;;
10232;SDS011;5161;48.174;11.756;2023-05-29T01:42:28;10.77;;;9.60;;
10232;SDS011;5161;48.174;11.756;2023-05-29T01:44:54;9.93;;;8.73;;
10232;SDS011;5161;48.174;11.756;2023-05-29T01:47:21;11.23;;;9.27;;
10232;SDS011;5161;48.174;11.756;2023-05-29T01:49:49;12.50;;;9.53;;
10232;SDS011;5161;48.174;11.756;2023-05-29T01:52:16;10.90;;;8.90;;
10232;SDS011;5161;48.174;11.756;2023-05-29T01:54:42;11.93;;;8.83;;
10232;SDS011;5161;48.174;11.756;2023-05-29T01:57:08;11.00;;;9.37;;
10232;SDS011;5161;48.174;11.756;2023-05-29T01:59:34;11.00;;;9.00;;
10232;SDS011;5161;48.174;11.756;2023-05-29T02:02:05;10.07;;;9.07;;
10232;SDS011;5161;48.174;11.756;2023-05-29T02:04:34;11.27;;;9.20;;
10232;SDS011;5161;48.174;11.756;2023-05-29T02:06:59;10.43;;;9.33;;
10232;SDS011;5161;48.174;11.756;2023-05-29T02:09:25;12.27;;;9.07;;
10232;SDS011;5161;48.174;11.756;2023-05-29T02:11:51;10.47;;;8.90;;
10232;SDS011;5161;48.174;11.756;2023-05-29T02:14:17;12.23;;;9.20;;
10232;SDS011;5161;48.174;11.756;2023-05-29T02:16:42;9.73;;;8.77;;
10232;SDS011;5161;48.174;11.756;2023-05-29T02:19:09;10.30;;;9.20;;
10232;SDS011;5161;48.174;11.756;2023-05-29T02:21:37;11.60;;;8.80;;
10232;SDS011;5161;48.174;11.756;2023-05-29T02:24:03;11.37;;;9.17;;
10232;SDS011;5161;48.174;11.756;2023-05-29T02:26:29;10.43;;;8.93;;
10232;SDS011;5161;48.174;11.756;2023-05-29T02:28:55;10.00;;;8.87;;
10232;SDS011;5161;48.174;11.756;2023-05-29T02:31:20;10.47;;;8.70;;
10232;SDS011;5161;48.174;11.756;2023-05-29T02:33:46;10.33;;;9.00;;
10232;SDS011;5161;48.174;11.756;2023-05-29T02:36:12;11.43;;;9.20;;
10232;SDS011;5161;48.174;11.756;2023-05-29T02:38:38;9.83;;;8.70;;
10232;SDS011;5161;48.174;11.756;2023-05-29T02:41:05;10.80;;;9.30;;
10232;SDS011;5161;48.174;11.756;2023-05-29T02:43:31;12.77;;;8.97;;
10232;SDS011;5161;48.174;11.756;2023-05-29T02:45:56;10.47;;;8.97;;
10232;SDS011;5161;48.174;11.756;2023-05-29T02:48:22;10.23;;;9.00;;
10232;SDS011;5161;48.174;11.756;2023-05-29T02:50:47;11.13;;;9.07;;
10232;SDS011;5161;48.174;11.756;2023-05-29T02:53:13;10.37;;;9.27;;
10232;SDS011;5161;48.174;11.756;2023-05-29T02:55:38;11.43;;;9.10;;
10232;SDS011;5161;48.174;11.756;2023-05-29T02:58:04;10.93;;;8.93;;
10232;SDS011;5161;48.174;11.756;2023-05-29T03:00:30;11.37;;;8.80;;
10232;SDS011;5161;48.174;11.756;2023-05-29T03:02:56;11.27;;;9.07;;
10232;SDS011;5161;48.174;11.756;2023-05-29T03:05:21;10.67;;;8.50;;
10232;SDS011;5161;48.174;11.756;2023-05-29T03:07:47;10.50;;;8.33;;
10232;SDS011;5161;48.174;11.756;2023-05-29T03:10:12;13.60;;;9.97;;
10232;SDS011;5161;48.174;11.756;2023-05-29T03:12:42;10.50;;;8.63;;
10232;SDS011;5161;48.174;11.756;2023-05-29T03:15:08;13.00;;;9.20;;
10232;SDS011;5161;48.174;11.756;2023-05-29T03:17:34;12.90;;;9.50;;
10232;SDS011;5161;48.174;11.756;2023-05-29T03:20:02;10.67;;;9.40;;
10232;SDS011;5161;48.174;11.756;2023-05-29T03:22:30;12.07;;;9.10;;
10232;SDS011;5161;48.174;11.756;2023-05-29T03:24:57;12.43;;;9.70;;
10232;SDS011;5161;48.174;11.756;2023-05-29T03:27:23;9.90;;;8.70;;
10232;SDS011;5161;48.174;11.756;2023-05-29T03:29:48;12.33;;;9.43;;
10232;SDS011;5161;48.174;11.756;2023-05-29T03:32:14;12.00;;;9.10;;
10232;SDS011;5161;48.174;11.756;2023-05-29T03:34:39;10.90;;;9.07;;
10232;SDS011;5161;48.174;11.756;2023-05-29T03:37:05;11.00;;;9.57;;
10232;SDS011;5161;48.174;11.756;2023-05-29T03:39:31;12.43;;;9.83;;
10232;SDS011;5161;48.174;11.756;2023-05-29T03:41:56;12.90;;;9.60;;
10232;SDS011;5161;48.174;11.756;2023-05-29T03:44:22;11.70;;;9.67;;
10232;SDS011;5161;48.174;11.756;2023-05-29T03:46:47;12.30;;;10.33;;
10232;SDS011;5161;48.174;11.756;2023-05-29T03:49:13;11.33;;;9.97;;
10232;SDS011;5161;48.174;11.756;2023-05-29T03:51:39;12.37;;;9.63;;
10232;SDS011;5161;48.174;11.756;2023-05-29T03:54:04;12.90;;;9.83;;
10232;SDS011;5161;48.174;11.756;2023-05-29T03:56:30;14.03;;;10.87;;
10232;SDS011;5161;48.174;11.756;2023-05-29T03:58:56;13.33;;;10.97;;
10232;SDS011;5161;48.174;11.756;2023-05-29T04:01:21;13.53;;;10.13;;
10232;SDS011;5161;48.174;11.756;2023-05-29T04:03:47;13.60;;;10.70;;
10232;SDS011;5161;48.174;11.756;2023-05-29T04:06:12;13.20;;;10.77;;
10232;SDS011;5161;48.174;11.756;2023-05-29T04:08:38;13.20;;;10.47;;
10232;SDS011;5161;48.174;11.756;2023-05-29T04:11:04;12.10;;;10.77;;
10232;SDS011;5161;48.174;11.756;2023-05-29T04:13:29;13.67;;;10.23;;
10232;SDS011;5161;48.174;11.756;2023-05-29T04:15:55;14.90;;;10.73;;
10232;SDS011;5161;48.174;11.756;2023-05-29T04:18:21;15.83;;;11.30;;
10232;SDS011;5161;48.174;11.756;2023-05-29T04:20:46;13.47;;;10.70;;
10232;SDS011;5161;48.174;11.756;2023-05-29T04:23:12;13.80;;;11.20;;
10232;SDS011;5161;48.174;11.756;2023-05-29T04:25:38;13.37;;;10.63;;
10232;SDS011;5161;48.174;11.756;2023-05-29T04:28:04;16.60;;;10.60;;
10232;SDS011;5161;48.174;11.756;2023-05-29T04:30:30;15.00;;;11.47;;
10232;SDS011;5161;48.174;11.756;2023-05-29T04:32:57;13.83;;;10.67;;
10232;SDS011;5161;48.174;11.756;2023-05-29T04:35:24;13.03;;;10.33;;
10232;SDS011;5161;48.174;11.756;2023-05-29T04:37:49;13.37;;;10.70;;
10232;SDS011;5161;48.174;11.756;2023-05-29T04:40:15;12.90;;;10.73;;
10232;SDS011;5161;48.174;11.756;2023-05-29T04:42:42;15.10;;;10.53;;
10232;SDS011;5161;48.174;11.756;2023-05-29T04:45:10;12.20;;;10.67;;
10232;SDS011;5161;48.174;11.756;2023-05-29T04:47:36;12.40;;;10.27;;
10232;SDS011;5161;48.174;11.756;2023-05-29T04:50:17;14.23;;;10.13;;
10232;SDS011;5161;48.174;11.756;2023-05-29T04:52:43;14.93;;;10.77;;
10232;SDS011;5161;48.174;11.756;2023-05-29T04:55:09;12.37;;;9.97;;
10232;SDS011;5161;48.174;11.756;2023-05-29T04:57:35;13.97;;;10.63;;
10232;SDS011;5161;48.174;11.756;2023-05-29T05:00:01;11.93;;;10.20;;
10232;SDS011;5161;48.174;11.756;2023-05-29T05:02:31;11.93;;;9.50;;
10232;SDS011;5161;48.174;11.756;2023-05-29T05:04:57;14.47;;;9.93;;
10232;SDS011;5161;48.174;11.756;2023-05-29T05:07:22;12.07;;;10.27;;
10232;SDS011;5161;48.174;11.756;2023-05-29T05:09:48;11.37;;;9.90;;
10232;SDS011;5161;48.174;11.756;2023-05-29T05:12:13;13.87;;;9.73;;
10232;SDS011;5161;48.174;11.756;2023-05-29T05:14:39;12.43;;;9.90;;
10232;SDS011;5161;48.174;11.756;2023-05-29T05:17:04;14.67;;;9.50;;
10232;SDS011;5161;48.174;11.756;2023-05-29T05:19:30;11.93;;;9.87;;
10232;SDS011;5161;48.174;11.756;2023-05-29T05:21:56;11.83;;;9.77;;
10232;SDS011;5161;48.174;11.756;2023-05-29T05:24:21;11.20;;;9.50;;
10232;SDS011;5161;48.174;11.756;2023-05-29T05:26:47;11.93;;;9.67;;
10232;SDS011;5161;48.174;11.756;2023-05-29T05:29:13;13.80;;;9.57;;
10232;SDS011;5161;48.174;11.756;2023-05-29T05:31:38;13.53;;;10.13;;
10232;SDS011;5161;48.174;11.756;2023-05-29T05:34:04;14.17;;;9.83;;
10232;SDS011;5161;48.174;11.756;2023-05-29T05:36:30;12.60;;;9.47;;
10232;SDS011;5161;48.174;11.756;2023-05-29T05:38:56;13.90;;;9.43;;
10232;SDS011;5161;48.174;11.756;2023-05-29T05:41:21;12.67;;;9.80;;
10232;SDS011;5161;48.174;11.756;2023-05-29T05:43:47;11.43;;;9.57;;
10232;SDS011;5161;48.174;11.756;2023-05-29T05:46:12;12.23;;;9.60;;
10232;SDS011;5161;48.174;11.756;2023-05-29T05:48:39;10.93;;;9.53;;
10232;SDS011;5161;48.174;11.756;2023-05-29T05:51:05;10.80;;;9.13;;
10232;SDS011;5161;48.174;11.756;2023-05-29T05:53:31;13.07;;;9.93;;
10232;SDS011;5161;48.174;11.756;2023-05-29T05:55:56;12.70;;;9.77;;
10232;SDS011;5161;48.174;11.756;2023-05-29T05:58:22;10.50;;;9.03;;
10232;SDS011;5161;48.174;11.756;2023-05-29T06:00:48;13.80;;;9.53;;
10232;SDS011;5161;48.174;11.756;2023-05-29T06:03:17;12.63;;;9.57;;
10232;SDS011;5161;48.174;11.756;2023-05-29T06:05:43;11.63;;;9.07;;
10232;SDS011;5161;48.174;11.756;2023-05-29T06:08:08;9.67;;;8.60;;
10232;SDS011;5161;48.174;11.756;2023-05-29T06:10:34;13.07;;;9.13;;
10232;SDS011;5161;48.174;11.756;2023-05-29T06:12:59;11.50;;;9.10;;
10232;SDS011;5161;48.174;11.756;2023-05-29T06:15:25;10.50;;;9.07;;
10232;SDS011;5161;48.174;11.756;2023-05-29T06:17:51;10.97;;;9.20;;
10232;SDS011;5161;48.174;11.756;2023-05-29T06:20:17;12.40;;;8.93;;
10232;SDS011;5161;48.174;11.756;2023-05-29T06:22:44;12.50;;;9.53;;
10232;SDS011;5161;48.174;11.756;2023-05-29T06:25:15;9.53;;;8.63;;
10232;SDS011;5161;48.174;11.756;2023-05-29T06:27:41;11.20;;;9.57;;
10232;SDS011;5161;48.174;11.756;2023-05-29T06:30:07;12.00;;;9.60;;
10232;SDS011;5161;48.174;11.756;2023-05-29T06:32:33;10.23;;;9.00;;
10232;SDS011;5161;48.174;11.756;2023-05-29T06:34:58;10.23;;;8.87;;
10232;SDS011;5161;48.174;11.756;2023-05-29T06:37:24;13.23;;;9.00;;
10232;SDS011;5161;48.174;11.756;2023-05-29T06:39:50;11.90;;;9.47;;
10232;SDS011;5161;48.174;11.756;2023-05-29T06:42:15;11.37;;;9.33;;
10232;SDS011;5161;48.174;11.756;2023-05-29T06:44:41;11.53;;;9.10;;
10232;SDS011;5161;48.174;11.756;2023-05-29T06:47:06;13.83;;;9.40;;
10232;SDS011;5161;48.174;11.756;2023-05-29T06:49:32;12.37;;;9.30;;
10232;SDS011;5161;48.174;11.756;2023-05-29T06:51:57;12.67;;;8.77;;
10232;SDS011;5161;48.174;11.756;2023-05-29T06:54:23;12.30;;;8.37;;
10232;SDS011;5161;48.174;11.756;2023-05-29T06:56:49;11.33;;;8.57;;
10232;SDS011;5161;48.174;11.756;2023-05-29T06:59:14;9.70;;;8.33;;
10232;SDS011;5161;48.174;11.756;2023-05-29T07:01:40;10.07;;;9.03;;
10232;SDS011;5161;48.174;11.756;2023-05-29T07:04:05;12.23;;;9.10;;
10232;SDS011;5161;48.174;11.756;2023-05-29T07:06:31;12.63;;;8.57;;
10232;SDS011;5161;48.174;11.756;2023-05-29T07:08:58;8.80;;;7.67;;
10232;SDS011;5161;48.174;11.756;2023-05-29T07:11:24;13.67;;;8.13;;
10232;SDS011;5161;48.174;11.756;2023-05-29T07:13:51;12.23;;;7.73;;
10232;SDS011;5161;48.174;11.756;2023-05-29T07:16:18;9.43;;;7.83;;
10232;SDS011;5161;48.174;11.756;2023-05-29T07:18:43;14.10;;;8.27;;
10232;SDS011;5161;48.174;11.756;2023-05-29T07:21:09;9.70;;;7.67;;
10232;SDS011;5161;48.174;11.756;2023-05-29T07:23:35;9.17;;;7.23;;
10232;SDS011;5161;48.174;11.756;2023-05-29T07:26:01;8.53;;;7.63;;
10232;SDS011;5161;48.174;11.756;2023-05-29T07:28:26;8.60;;;7.53;;
10232;SDS011;5161;48.174;11.756;2023-05-29T07:30:52;12.20;;;7.23;;
10232;SDS011;5161;48.174;11.756;2023-05-29T07:33:17;11.47;;;8.00;;
10232;SDS011;5161;48.174;11.756;2023-05-29T07:35:43;8.60;;;7.73;;
10232;SDS011;5161;48.174;11.756;2023-05-29T07:38:08;8.07;;;7.27;;
10232;SDS011;5161;48.174;11.756;2023-05-29T07:40:35;8.90;;;7.67;;
10232;SDS011;5161;48.174;11.756;2023-05-29T07:43:01;11.07;;;7.87;;
10232;SDS011;5161;48.174;11.756;2023-05-29T07:45:26;11.23;;;8.13;;
10232;SDS011;5161;48.174;11.756;2023-05-29T07:47:52;11.60;;;7.87;;
10232;SDS011;5161;48.174;11.756;2023-05-29T07:50:17;9.43;;;7.70;;
10232;SDS011;5161;48.174;11.756;2023-05-29T07:52:43;12.80;;;8.13;;
10232;SDS011;5161;48.174;11.756;2023-05-29T07:55:09;10.40;;;8.37;;
10232;SDS011;5161;48.174;11.756;2023-05-29T07:57:35;10.13;;;8.30;;
10232;SDS011;5161;48.174;11.756;2023-05-29T08:00:00;9.20;;;8.07;;
10232;SDS011;5161;48.174;11.756;2023-05-29T08:02:33;9.97;;;7.43;;
10232;SDS011;5161;48.174;11.756;2023-05-29T08:04:58;10.70;;;8.57;;
10232;SDS011;5161;48.174;11.756;2023-05-29T08:07:24;9.67;;;7.80;;
10232;SDS011;5161;48.174;11.756;2023-05-29T08:09:53;13.10;;;7.70;;
10232;SDS011;5161;48.174;11.756;2023-05-29T08:12:19;11.07;;;7.60;;
10232;SDS011;5161;48.174;11.756;2023-05-29T08:14:45;10.77;;;7.47;;
10232;SDS011;5161;48.174;11.756;2023-05-29T08:17:10;9.07;;;7.50;;
10232;SDS011;5161;48.174;11.756;2023-05-29T08:19:36;8.53;;;7.67;;
10232;SDS011;5161;48.174;11.756;2023-05-29T08:22:02;9.00;;;7.50;;
10232;SDS011;5161;48.174;11.756;2023-05-29T08:24:27;9.50;;;7.20;;
10232;SDS011;5161;48.174;11.756;2023-05-29T08:26:53;8.90;;;7.70;;
10232;SDS011;5161;48.174;11.756;2023-05-29T08:29:19;8.07;;;7.20;;
10232;SDS011;5161;48.174;11.756;2023-05-29T08:31:44;8.10;;;7.13;;
10232;SDS011;5161;48.174;11.756;2023-05-29T08:34:10;9.77;;;7.60;;
10232;SDS011;5161;48.174;11.756;2023-05-29T08:36:36;10.13;;;7.37;;
10232;SDS011;5161;48.174;11.756;2023-05-29T08:39:02;9.60;;;7.47;;
10232;SDS011;5161;48.174;11.756;2023-05-29T08:41:31;8.10;;;7.00;;
10232;SDS011;5161;48.174;11.756;2023-05-29T08:44:08;8.73;;;7.57;;
10232;SDS011;5161;48.174;11.756;2023-05-29T08:46:39;13.57;;;7.50;;
10232;SDS011;5161;48.174;11.756;2023-05-29T08:49:05;10.23;;;7.63;;
10232;SDS011;5161;48.174;11.756;2023-05-29T08:51:33;9.23;;;6.90;;
10232;SDS011;5161;48.174;11.756;2023-05-29T08:54:04;8.43;;;7.20;;
10232;SDS011;5161;48.174;11.756;2023-05-29T08:56:31;9.03;;;7.60;;
10232;SDS011;5161;48.174;11.756;2023-05-29T08:58:57;9.20;;;7.00;;
10232;SDS011;5161;48.174;11.756;2023-05-29T09:01:23;8.40;;;7.53;;
10232;SDS011;5161;48.174;11.756;2023-05-29T09:03:50;10.97;;;7.43;;
10232;SDS011;5161;48.174;11.756;2023-05-29T09:06:16;9.60;;;7.13;;
10232;SDS011;5161;48.174;11.756;2023-05-29T09:08:43;13.20;;;7.43;;
10232;SDS011;5161;48.174;11.756;2023-05-29T09:11:09;10.27;;;7.20;;
10232;SDS011;5161;48.174;11.756;2023-05-29T09:13:35;9.73;;;7.20;;
10232;SDS011;5161;48.174;11.756;2023-05-29T09:16:00;8.03;;;7.00;;
10232;SDS011;5161;48.174;11.756;2023-05-29T09:18:28;7.47;;;6.13;;
10232;SDS011;5161;48.174;11.756;2023-05-29T09:20:55;9.77;;;6.97;;
10232;SDS011;5161;48.174;11.756;2023-05-29T09:23:21;18.47;;;7.23;;
10232;SDS011;5161;48.174;11.756;2023-05-29T09:25:50;12.23;;;7.43;;
10232;SDS011;5161;48.174;11.756;2023-05-29T09:28:18;9.20;;;6.63;;
10232;SDS011;5161;48.174;11.756;2023-05-29T09:30:46;10.17;;;6.87;;
10232;SDS011;5161;48.174;11.756;2023-05-29T09:33:13;8.77;;;6.33;;
10232;SDS011;5161;48.174;11.756;2023-05-29T09:35:43;7.13;;;6.30;;
10232;SDS011;5161;48.174;11.756;2023-05-29T09:38:10;7.63;;;6.20;;
10232;SDS011;5161;48.174;11.756;2023-05-29T09:40:38;8.73;;;7.47;;
10232;SDS011;5161;48.174;11.756;2023-05-29T09:45:36;8.07;;;6.10;;
10232;SDS011;5161;48.174;11.756;2023-05-29T09:48:03;7.80;;;6.20;;
10232;SDS011;5161;48.174;11.756;2023-05-29T09:50:29;6.93;;;6.23;;
10232;SDS011;5161;48.174;11.756;2023-05-29T09:52:56;9.00;;;6.63;;
10232;SDS011;5161;48.174;11.756;2023-05-29T09:55:25;9.63;;;6.40;;
10232;SDS011;5161;48.174;11.756;2023-05-29T09:57:53;8.27;;;6.27;;
10232;SDS011;5161;48.174;11.756;2023-05-29T10:00:22;10.93;;;6.33;;
10232;SDS011;5161;48.174;11.756;2023-05-29T10:02:48;7.23;;;6.30;;
10232;SDS011;5161;48.174;11.756;2023-05-29T10:05:14;6.63;;;6.00;;
10232;SDS011;5161;48.174;11.756;2023-05-29T10:07:43;7.40;;;6.10;;
10232;SDS011;5161;48.174;11.756;2023-05-29T10:10:12;7.97;;;6.07;;
10232;SDS011;5161;48.174;11.756;2023-05-29T10:12:39;7.17;;;5.97;;
10232;SDS011;5161;48.174;11.756;2023-05-29T10:15:13;6.53;;;5.93;;
10232;SDS011;5161;48.174;11.756;2023-05-29T10:17:39;8.33;;;6.27;;
10232;SDS011;5161;48.174;11.756;2023-05-29T10:20:15;8.83;;;6.13;;
10232;SDS011;5161;48.174;11.756;2023-05-29T10:22:45;7.20;;;6.50;;
10232;SDS011;5161;48.174;11.756;2023-05-29T10:25:13;8.57;;;6.30;;
10232;SDS011;5161;48.174;11.756;2023-05-29T10:27:42;7.60;;;5.90;;
10232;SDS011;5161;48.174;11.756;2023-05-29T10:38:15;8.87;;;6.30;;
10232;SDS011;5161;48.174;11.756;2023-05-29T10:40:44;7.27;;;6.57;;
10232;SDS011;5161;48.174;11.756;2023-05-29T10:46:02;7.63;;;6.07;;
10232;SDS011;5161;48.174;11.756;2023-05-29T10:48:38;8.40;;;6.10;;
10232;SDS011;5161;48.174;11.756;2023-05-29T10:51:05;7.77;;;5.60;;
10232;SDS011;5161;48.174;11.756;2023-05-29T10:53:33;7.07;;;5.87;;
10232;SDS011;5161;48.174;11.756;2023-05-29T10:55:59;6.00;;;5.50;;
10232;SDS011;5161;48.174;11.756;2023-05-29T10:58:26;8.33;;;5.90;;
10232;SDS011;5161;48.174;11.756;2023-05-29T11:00:53;8.13;;;6.33;;
10232;SDS011;5161;48.174;11.756;2023-05-29T11:03:24;9.60;;;6.00;;
10232;SDS011;5161;48.174;11.756;2023-05-29T11:05:58;7.17;;;5.67;;
10232;SDS011;5161;48.174;11.756;2023-05-29T11:11:11;7.47;;;6.17;;
10232;SDS011;5161;48.174;11.756;2023-05-29T11:13:38;8.57;;;6.17;;
10232;SDS011;5161;48.174;11.756;2023-05-29T11:16:35;6.97;;;5.97;;
10232;SDS011;5161;48.174;11.756;2023-05-29T11:18:57;6.23;;;5.53;;
10232;SDS011;5161;48.174;11.756;2023-05-29T11:23:56;8.57;;;6.23;;
10232;SDS011;5161;48.174;11.756;2023-05-29T11:26:26;6.10;;;5.50;;
10232;SDS011;5161;48.174;11.756;2023-05-29T11:28:52;6.73;;;5.97;;
10232;SDS011;5161;48.174;11.756;2023-05-29T11:31:18;8.37;;;6.17;;
10232;SDS011;5161;48.174;11.756;2023-05-29T11:33:50;8.23;;;5.73;;
10232;SDS011;5161;48.174;11.756;2023-05-29T11:36:21;7.03;;;6.00;;
10232;SDS011;5161;48.174;11.756;2023-05-29T11:38:47;10.30;;;5.80;;
10232;SDS011;5161;48.174;11.756;2023-05-29T11:41:12;9.67;;;6.20;;
10232;SDS011;5161;48.174;11.756;2023-05-29T11:43:38;6.17;;;5.50;;
10232;SDS011;5161;48.174;11.756;2023-05-29T11:46:15;9.33;;;5.90;;
10232;SDS011;5161;48.174;11.756;2023-05-29T11:48:45;8.03;;;6.07;;
10232;SDS011;5161;48.174;11.756;2023-05-29T11:51:14;6.97;;;6.27;;
10232;SDS011;5161;48.174;11.756;2023-05-29T11:53:40;8.50;;;6.33;;
10232;SDS011;5161;48.174;11.756;2023-05-29T11:56:09;6.57;;;5.97;;
10232;SDS011;5161;48.174;11.756;2023-05-29T11:58:39;7.93;;;6.23;;
10232;SDS011;5161;48.174;11.756;2023-05-29T12:01:05;6.30;;;5.70;;
10232;SDS011;5161;48.174;11.756;2023-05-29T12:03:42;8.50;;;6.10;;
10232;SDS011;5161;48.174;11.756;2023-05-29T12:06:11;6.33;;;5.73;;
10232;SDS011;5161;48.174;11.756;2023-05-29T12:08:37;6.13;;;5.10;;
10232;SDS011;5161;48.174;11.756;2023-05-29T12:11:03;7.50;;;5.83;;
10232;SDS011;5161;48.174;11.756;2023-05-29T12:13:28;7.00;;;5.70;;
10232;SDS011;5161;48.174;11.756;2023-05-29T12:15:56;6.57;;;5.90;;
10232;SDS011;5161;48.174;11.756;2023-05-29T12:18:28;7.30;;;5.77;;
10232;SDS011;5161;48.174;11.756;2023-05-29T12:20:59;9.53;;;5.60;;
10232;SDS011;5161;48.174;11.756;2023-05-29T12:23:25;6.27;;;5.67;;
10232;SDS011;5161;48.174;11.756;2023-05-29T12:25:52;6.30;;;5.80;;
10232;SDS011;5161;48.174;11.756;2023-05-29T12:28:19;6.60;;;6.00;;
10232;SDS011;5161;48.174;11.756;2023-05-29T12:30:46;6.50;;;5.90;;
10232;SDS011;5161;48.174;11.756;2023-05-29T12:33:30;6.20;;;5.60;;
10232;SDS011;5161;48.174;11.756;2023-05-29T12:36:01;5.97;;;5.43;;
10232;SDS011;5161;48.174;11.756;2023-05-29T12:38:31;5.50;;;5.00;;
10232;SDS011;5161;48.174;11.756;2023-05-29T12:40:57;7.93;;;5.90;;
10232;SDS011;5161;48.174;11.756;2023-05-29T12:43:23;7.53;;;5.50;;
10232;SDS011;5161;48.174;11.756;2023-05-29T12:45:53;6.30;;;5.70;;
10232;SDS011;5161;48.174;11.756;2023-05-29T12:48:26;6.40;;;5.63;;
10232;SDS011;5161;48.174;11.756;2023-05-29T12:50:52;6.47;;;5.87;;
10232;SDS011;5161;48.174;11.756;2023-05-29T12:53:17;6.03;;;5.53;;
10232;SDS011;5161;48.174;11.756;2023-05-29T12:55:43;7.73;;;5.87;;
10232;SDS011;5161;48.174;11.756;2023-05-29T12:58:10;7.00;;;5.63;;
10232;SDS011;5161;48.174;11.756;2023-05-29T13:00:41;7.90;;;6.00;;
10232;SDS011;5161;48.174;11.756;2023-05-29T13:03:08;7.30;;;6.37;;
10232;SDS011;5161;48.174;11.756;2023-05-29T13:05:35;6.90;;;5.80;;
10232;SDS011;5161;48.174;11.756;2023-05-29T13:08:01;7.30;;;5.73;;
10232;SDS011;5161;48.174;11.756;2023-05-29T13:10:29;6.23;;;5.63;;
10232;SDS011;5161;48.174;11.756;2023-05-29T13:12:55;7.73;;;5.83;;
10232;SDS011;5161;48.174;11.756;2023-05-29T13:15:24;6.60;;;5.90;;
10232;SDS011;5161;48.174;11.756;2023-05-29T13:17:51;8.50;;;5.77;;
10232;SDS011;5161;48.174;11.756;2023-05-29T13:20:18;7.87;;;5.60;;
10232;SDS011;5161;48.174;11.756;2023-05-29T13:22:44;6.70;;;5.83;;
10232;SDS011;5161;48.174;11.756;2023-05-29T13:25:13;6.23;;;5.63;;
10232;SDS011;5161;48.174;11.756;2023-05-29T13:27:40;6.70;;;6.00;;
10232;SDS011;5161;48.174;11.756;2023-05-29T13:30:09;6.47;;;5.77;;
10232;SDS011;5161;48.174;11.756;2023-05-29T13:32:36;6.23;;;5.63;;
10232;SDS011;5161;48.174;11.756;2023-05-29T13:35:02;8.17;;;6.07;;
10232;SDS011;5161;48.174;11.756;2023-05-29T13:37:28;6.50;;;5.50;;
10232;SDS011;5161;48.174;11.756;2023-05-29T13:39:54;6.17;;;5.67;;
10232;SDS011;5161;48.174;11.756;2023-05-29T13:42:20;9.20;;;5.50;;
10232;SDS011;5161;48.174;11.756;2023-05-29T13:44:46;6.40;;;5.80;;
10232;SDS011;5161;48.174;11.756;2023-05-29T13:47:12;6.07;;;5.47;;
10232;SDS011;5161;48.174;11.756;2023-05-29T13:49:38;7.07;;;5.80;;
10232;SDS011;5161;48.174;11.756;2023-05-29T13:52:04;6.03;;;5.53;;
10232;SDS011;5161;48.174;11.756;2023-05-29T13:54:30;6.80;;;6.07;;
10232;SDS011;5161;48.174;11.756;2023-05-29T13:57:00;6.43;;;5.73;;
10232;SDS011;5161;48.174;11.756;2023-05-29T13:59:29;6.47;;;5.87;;
10232;SDS011;5161;48.174;11.756;2023-05-29T14:01:55;6.83;;;5.70;;
10232;SDS011;5161;48.174;11.756;2023-05-29T14:04:21;8.07;;;5.70;;
10232;SDS011;5161;48.174;11.756;2023-05-29T14:06:47;5.93;;;5.33;;
10232;SDS011;5161;48.174;11.756;2023-05-29T14:09:13;7.63;;;5.90;;
10232;SDS011;5161;48.174;11.756;2023-05-29T14:11:39;6.38;;;5.35;;
10232;SDS011;5161;48.174;11.756;2023-05-29T14:14:05;6.23;;;5.63;;
10232;SDS011;5161;48.174;11.756;2023-05-29T14:16:32;6.57;;;5.47;;
10232;SDS011;5161;48.174;11.756;2023-05-29T14:18:58;7.50;;;5.80;;
10232;SDS011;5161;48.174;11.756;2023-05-29T14:21:24;6.17;;;5.53;;
10232;SDS011;5161;48.174;11.756;2023-05-29T14:23:50;6.82;;;5.68;;
10232;SDS011;5161;48.174;11.756;2023-05-29T14:26:15;6.73;;;5.87;;
10232;SDS011;5161;48.174;11.756;2023-05-29T14:28:41;8.13;;;6.10;;
10232;SDS011;5161;48.174;11.756;2023-05-29T14:31:06;6.07;;;5.47;;
10232;SDS011;5161;48.174;11.756;2023-05-29T14:33:32;6.20;;;5.70;;
10232;SDS011;5161;48.174;11.756;2023-05-29T14:35:58;6.70;;;5.80;;
10232;SDS011;5161;48.174;11.756;2023-05-29T14:38:24;6.50;;;5.65;;
10232;SDS011;5161;48.174;11.756;2023-05-29T14:40:50;6.50;;;5.80;;
10232;SDS011;5161;48.174;11.756;2023-05-29T14:43:16;6.38;;;5.78;;
10232;SDS011;5161;48.174;11.756;2023-05-29T14:45:42;6.30;;;5.70;;
10232;SDS011;5161;48.174;11.756;2023-05-29T14:48:08;6.20;;;5.68;;
10232;SDS011;5161;48.174;11.756;2023-05-29T14:50:34;9.52;;;5.90;;
10232;SDS011;5161;48.174;11.756;2023-05-29T14:53:00;6.55;;;5.95;;
10232;SDS011;5161;48.174;11.756;2023-05-29T14:55:26;6.85;;;5.75;;
10232;SDS011;5161;48.174;11.756;2023-05-29T14:57:51;6.38;;;5.45;;
10232;SDS011;5161;48.174;11.756;2023-05-29T15:00:17;6.82;;;5.18;;
10232;SDS011;5161;48.174;11.756;2023-05-29T15:02:43;5.55;;;5.00;;
10232;SDS011;5161;48.174;11.756;2023-05-29T15:05:08;7.97;;;5.68;;